sensor_id;sensor_type;location;lat;lon;timestamp;pressure;altitude;pressure_sealevel;temperature;humidity
54994;BME280;40891;47.242;8.648;2022-07-06T00:01:20;96859.94;;;20.65;58.56
54994;BME280;40891;47.242;8.648;2022-07-06T00:03:46;96858.59;;;20.55;58.79
54994;BME280;40891;47.242;8.648;2022-07-06T00:06:11;96858.31;;;20.47;59.15
54994;BME280;40891;47.242;8.648;2022-07-06T00:08:37;96861.38;;;20.49;57.84
54994;BME280;40891;47.242;8.648;2022-07-06T00:11:03;96864.72;;;20.48;58.94
54994;BME280;40891;47.242;8.648;2022-07-06T00:13:28;96865.03;;;20.55;58.67
54994;BME280;40891;47.242;8.648;2022-07-06T00:15:54;96864.03;;;20.64;58.06
54994;BME280;40891;47.242;8.648;2022-07-06T00:18:19;96859.66;;;20.63;58.18
54994;BME280;40891;47.242;8.648;2022-07-06T00:20:45;96859.44;;;20.72;57.47
54994;BME280;40891;47.242;8.648;2022-07-06T00:23:10;96854.06;;;20.85;57.63
54994;BME280;40891;47.242;8.648;2022-07-06T00:25:36;96854.88;;;20.91;58.72
54994;BME280;40891;47.242;8.648;2022-07-06T00:28:01;96856.91;;;20.79;58.59
54994;BME280;40891;47.242;8.648;2022-07-06T00:30:27;96860.22;;;20.78;58.24
54994;BME280;40891;47.242;8.648;2022-07-06T00:32:53;96856.88;;;20.74;58.52
54994;BME280;40891;47.242;8.648;2022-07-06T00:35:18;96862.03;;;20.81;57.32
54994;BME280;40891;47.242;8.648;2022-07-06T00:37:43;96855.84;;;20.82;57.43
54994;BME280;40891;47.242;8.648;2022-07-06T00:40:09;96851.75;;;20.83;58.49
54994;BME280;40891;47.242;8.648;2022-07-06T00:42:42;96857.13;;;20.76;58.99
54994;BME280;40891;47.242;8.648;2022-07-06T00:45:09;96855.56;;;20.69;59.43
54994;BME280;40891;47.242;8.648;2022-07-06T00:47:35;96851.97;;;20.63;59.53
54994;BME280;40891;47.242;8.648;2022-07-06T00:50:00;96846.03;;;20.56;59.42
54994;BME280;40891;47.242;8.648;2022-07-06T00:52:56;96849.03;;;20.41;60.69
54994;BME280;40891;47.242;8.648;2022-07-06T00:55:24;96851.06;;;20.35;60.57
54994;BME280;40891;47.242;8.648;2022-07-06T00:57:50;96843.56;;;20.26;61.55
54994;BME280;40891;47.242;8.648;2022-07-06T01:00:18;96849.16;;;20.21;61.87
54994;BME280;40891;47.242;8.648;2022-07-06T01:02:45;96850.94;;;20.13;62.91
54994;BME280;40891;47.242;8.648;2022-07-06T01:05:12;96851.63;;;20.02;63.58
54994;BME280;40891;47.242;8.648;2022-07-06T01:07:41;96848.75;;;19.91;64.36
54994;BME280;40891;47.242;8.648;2022-07-06T01:10:08;96848.47;;;19.89;64.37
54994;BME280;40891;47.242;8.648;2022-07-06T01:12:35;96841.06;;;19.92;63.79
54994;BME280;40891;47.242;8.648;2022-07-06T01:15:04;96840.81;;;19.95;63.91
54994;BME280;40891;47.242;8.648;2022-07-06T01:17:30;96837.72;;;19.93;65.08
54994;BME280;40891;47.242;8.648;2022-07-06T01:19:56;96839.13;;;19.72;66.19
54994;BME280;40891;47.242;8.648;2022-07-06T01:22:21;96839.53;;;19.59;66.25
54994;BME280;40891;47.242;8.648;2022-07-06T01:24:47;96836.22;;;19.61;66.59
54994;BME280;40891;47.242;8.648;2022-07-06T01:27:12;96839.25;;;19.57;67.46
54994;BME280;40891;47.242;8.648;2022-07-06T01:29:38;96844.41;;;19.59;67.55
54994;BME280;40891;47.242;8.648;2022-07-06T01:32:04;96847.00;;;19.62;67.05
54994;BME280;40891;47.242;8.648;2022-07-06T01:34:29;96852.44;;;19.72;67.06
54994;BME280;40891;47.242;8.648;2022-07-06T01:36:54;96856.59;;;19.76;66.93
54994;BME280;40891;47.242;8.648;2022-07-06T01:39:20;96851.41;;;19.69;67.83
54994;BME280;40891;47.242;8.648;2022-07-06T01:41:46;96853.19;;;19.66;67.76
54994;BME280;40891;47.242;8.648;2022-07-06T01:44:11;96856.50;;;19.65;68.10
54994;BME280;40891;47.242;8.648;2022-07-06T01:46:37;96856.50;;;19.65;68.66
54994;BME280;40891;47.242;8.648;2022-07-06T01:49:03;96852.44;;;19.66;69.54
54994;BME280;40891;47.242;8.648;2022-07-06T01:51:29;96856.75;;;19.61;69.71
54994;BME280;40891;47.242;8.648;2022-07-06T01:53:54;96846.22;;;19.62;70.23
54994;BME280;40891;47.242;8.648;2022-07-06T01:56:19;96847.25;;;19.59;70.23
54994;BME280;40891;47.242;8.648;2022-07-06T01:58:46;96851.28;;;19.52;70.50
54994;BME280;40891;47.242;8.648;2022-07-06T02:01:19;96851.00;;;19.50;70.58
54994;BME280;40891;47.242;8.648;2022-07-06T02:03:45;96851.72;;;19.45;70.12
54994;BME280;40891;47.242;8.648;2022-07-06T02:06:11;96853.81;;;19.45;70.41
54994;BME280;40891;47.242;8.648;2022-07-06T02:08:40;96855.28;;;19.40;69.60
54994;BME280;40891;47.242;8.648;2022-07-06T02:11:06;96854.00;;;19.41;69.08
54994;BME280;40891;47.242;8.648;2022-07-06T02:13:33;96865.09;;;19.45;68.26
54994;BME280;40891;47.242;8.648;2022-07-06T02:15:59;96863.53;;;19.44;68.47
54994;BME280;40891;47.242;8.648;2022-07-06T02:18:24;96865.94;;;19.56;68.60
54994;BME280;40891;47.242;8.648;2022-07-06T02:20:50;96853.56;;;19.48;68.79
54994;BME280;40891;47.242;8.648;2022-07-06T02:23:15;96855.84;;;19.44;69.55
54994;BME280;40891;47.242;8.648;2022-07-06T02:25:40;96855.94;;;19.30;70.38
54994;BME280;40891;47.242;8.648;2022-07-06T02:28:06;96852.00;;;19.22;70.55
54994;BME280;40891;47.242;8.648;2022-07-06T02:30:31;96858.28;;;19.06;70.15
54994;BME280;40891;47.242;8.648;2022-07-06T02:32:56;96850.03;;;19.02;70.96
54994;BME280;40891;47.242;8.648;2022-07-06T02:35:22;96847.44;;;18.98;71.25
54994;BME280;40891;47.242;8.648;2022-07-06T02:37:47;96853.50;;;18.91;71.90
54994;BME280;40891;47.242;8.648;2022-07-06T02:40:12;96854.81;;;18.90;70.48
54994;BME280;40891;47.242;8.648;2022-07-06T02:42:38;96856.56;;;18.88;70.76
54994;BME280;40891;47.242;8.648;2022-07-06T02:45:04;96848.59;;;18.86;70.50
54994;BME280;40891;47.242;8.648;2022-07-06T02:47:29;96855.44;;;18.80;71.25
54994;BME280;40891;47.242;8.648;2022-07-06T02:49:55;96856.66;;;18.73;71.00
54994;BME280;40891;47.242;8.648;2022-07-06T02:52:20;96864.53;;;18.69;71.48
54994;BME280;40891;47.242;8.648;2022-07-06T02:54:45;96860.06;;;18.57;71.44
54994;BME280;40891;47.242;8.648;2022-07-06T02:57:11;96866.13;;;18.50;71.50
54994;BME280;40891;47.242;8.648;2022-07-06T02:59:36;96865.75;;;18.43;72.04
54994;BME280;40891;47.242;8.648;2022-07-06T03:02:05;96867.50;;;18.40;72.18
54994;BME280;40891;47.242;8.648;2022-07-06T03:04:30;96873.13;;;18.40;71.52
54994;BME280;40891;47.242;8.648;2022-07-06T03:06:56;96872.34;;;18.40;71.19
54994;BME280;40891;47.242;8.648;2022-07-06T03:09:21;96875.09;;;18.34;71.31
54994;BME280;40891;47.242;8.648;2022-07-06T03:11:47;96869.16;;;18.32;72.11
54994;BME280;40891;47.242;8.648;2022-07-06T03:14:12;96882.41;;;18.26;72.05
54994;BME280;40891;47.242;8.648;2022-07-06T03:16:38;96880.56;;;18.23;72.41
54994;BME280;40891;47.242;8.648;2022-07-06T03:19:03;96881.81;;;18.22;71.50
54994;BME280;40891;47.242;8.648;2022-07-06T03:21:29;96874.16;;;18.22;71.72
54994;BME280;40891;47.242;8.648;2022-07-06T03:23:54;96878.03;;;18.25;72.73
54994;BME280;40891;47.242;8.648;2022-07-06T03:26:19;96885.38;;;18.37;72.50
54994;BME280;40891;47.242;8.648;2022-07-06T03:28:45;96886.84;;;18.32;72.33
54994;BME280;40891;47.242;8.648;2022-07-06T03:31:10;96878.59;;;18.29;71.99
54994;BME280;40891;47.242;8.648;2022-07-06T03:33:35;96879.44;;;18.15;72.90
54994;BME280;40891;47.242;8.648;2022-07-06T03:36:01;96876.00;;;18.05;73.94
54994;BME280;40891;47.242;8.648;2022-07-06T03:38:26;96881.53;;;18.00;72.93
54994;BME280;40891;47.242;8.648;2022-07-06T03:40:51;96880.66;;;17.94;73.13
54994;BME280;40891;47.242;8.648;2022-07-06T03:43:17;96881.66;;;17.91;74.25
54994;BME280;40891;47.242;8.648;2022-07-06T03:45:42;96893.88;;;17.88;74.36
54994;BME280;40891;47.242;8.648;2022-07-06T03:48:08;96892.81;;;17.85;72.19
54994;BME280;40891;47.242;8.648;2022-07-06T03:50:33;96894.56;;;17.83;72.92
54994;BME280;40891;47.242;8.648;2022-07-06T03:52:59;96890.84;;;17.91;71.90
54994;BME280;40891;47.242;8.648;2022-07-06T03:55:24;96890.66;;;17.95;71.88
54994;BME280;40891;47.242;8.648;2022-07-06T03:57:50;96898.72;;;18.02;71.37
54994;BME280;40891;47.242;8.648;2022-07-06T04:00:15;96892.50;;;17.98;71.12
54994;BME280;40891;47.242;8.648;2022-07-06T04:02:41;96889.88;;;17.94;71.17
54994;BME280;40891;47.242;8.648;2022-07-06T04:05:06;96891.63;;;17.92;71.32
54994;BME280;40891;47.242;8.648;2022-07-06T04:07:32;96897.56;;;17.94;71.82
54994;BME280;40891;47.242;8.648;2022-07-06T04:09:57;96890.94;;;17.97;71.24
54994;BME280;40891;47.242;8.648;2022-07-06T04:12:24;96888.69;;;18.01;70.54
54994;BME280;40891;47.242;8.648;2022-07-06T04:14:49;96884.06;;;17.98;70.78
54994;BME280;40891;47.242;8.648;2022-07-06T04:17:15;96891.50;;;18.01;71.19
54994;BME280;40891;47.242;8.648;2022-07-06T04:19:59;96889.75;;;18.03;70.92
54994;BME280;40891;47.242;8.648;2022-07-06T04:22:24;96894.00;;;18.13;71.10
54994;BME280;40891;47.242;8.648;2022-07-06T04:24:50;96897.69;;;18.19;70.91
54994;BME280;40891;47.242;8.648;2022-07-06T04:27:15;96896.50;;;18.26;69.71
54994;BME280;40891;47.242;8.648;2022-07-06T04:29:40;96893.25;;;18.33;69.58
54994;BME280;40891;47.242;8.648;2022-07-06T04:32:06;96892.63;;;18.44;67.36
54994;BME280;40891;47.242;8.648;2022-07-06T04:34:32;96887.66;;;18.53;67.04
54994;BME280;40891;47.242;8.648;2022-07-06T04:36:57;96896.72;;;18.63;66.27
54994;BME280;40891;47.242;8.648;2022-07-06T04:39:22;96902.94;;;18.67;64.19
54994;BME280;40891;47.242;8.648;2022-07-06T04:41:48;96895.59;;;18.75;63.55
54994;BME280;40891;47.242;8.648;2022-07-06T04:44:13;96897.97;;;18.82;62.51
54994;BME280;40891;47.242;8.648;2022-07-06T04:46:39;96901.84;;;18.84;62.04
54994;BME280;40891;47.242;8.648;2022-07-06T04:49:04;96900.38;;;18.89;61.29
54994;BME280;40891;47.242;8.648;2022-07-06T04:51:30;96894.09;;;18.99;61.31
54994;BME280;40891;47.242;8.648;2022-07-06T04:53:55;96897.22;;;19.07;61.63
54994;BME280;40891;47.242;8.648;2022-07-06T04:56:20;96898.06;;;19.13;60.96
54994;BME280;40891;47.242;8.648;2022-07-06T04:58:46;96891.94;;;19.15;62.20
54994;BME280;40891;47.242;8.648;2022-07-06T05:01:11;96889.94;;;19.21;62.08
54994;BME280;40891;47.242;8.648;2022-07-06T05:03:36;96874.34;;;19.25;62.49
54994;BME280;40891;47.242;8.648;2022-07-06T05:06:06;96889.53;;;19.33;61.29
54994;BME280;40891;47.242;8.648;2022-07-06T05:08:31;96882.94;;;19.36;61.14
54994;BME280;40891;47.242;8.648;2022-07-06T05:10:57;96885.28;;;19.38;61.11
54994;BME280;40891;47.242;8.648;2022-07-06T05:13:22;96894.28;;;19.42;62.01
54994;BME280;40891;47.242;8.648;2022-07-06T05:15:47;96894.81;;;19.46;61.97
54994;BME280;40891;47.242;8.648;2022-07-06T05:18:13;96899.19;;;19.47;61.36
54994;BME280;40891;47.242;8.648;2022-07-06T05:20:38;96896.13;;;19.50;61.44
54994;BME280;40891;47.242;8.648;2022-07-06T05:23:04;96899.22;;;19.52;61.32
54994;BME280;40891;47.242;8.648;2022-07-06T05:25:29;96898.25;;;19.55;61.62
54994;BME280;40891;47.242;8.648;2022-07-06T05:27:55;96894.44;;;19.64;60.96
54994;BME280;40891;47.242;8.648;2022-07-06T05:30:20;96888.59;;;19.67;61.94
54994;BME280;40891;47.242;8.648;2022-07-06T05:32:46;96892.47;;;19.70;62.73
54994;BME280;40891;47.242;8.648;2022-07-06T05:35:11;96896.53;;;19.63;63.68
54994;BME280;40891;47.242;8.648;2022-07-06T05:37:37;96895.56;;;19.72;64.41
54994;BME280;40891;47.242;8.648;2022-07-06T05:40:02;96894.88;;;19.83;63.77
54994;BME280;40891;47.242;8.648;2022-07-06T05:42:28;96898.28;;;19.92;64.54
54994;BME280;40891;47.242;8.648;2022-07-06T05:44:56;96892.91;;;19.94;64.59
54994;BME280;40891;47.242;8.648;2022-07-06T05:47:22;96894.84;;;19.77;63.01
54994;BME280;40891;47.242;8.648;2022-07-06T05:50:06;96901.47;;;19.74;63.44
54994;BME280;40891;47.242;8.648;2022-07-06T05:52:50;96906.91;;;19.83;63.33
54994;BME280;40891;47.242;8.648;2022-07-06T05:55:19;96905.38;;;19.82;62.51
54994;BME280;40891;47.242;8.648;2022-07-06T05:57:45;96901.97;;;20.04;61.81
54994;BME280;40891;47.242;8.648;2022-07-06T06:00:10;96915.28;;;20.03;62.55
54994;BME280;40891;47.242;8.648;2022-07-06T06:02:40;96917.06;;;20.01;60.87
54994;BME280;40891;47.242;8.648;2022-07-06T06:05:07;96914.06;;;20.10;60.96
54994;BME280;40891;47.242;8.648;2022-07-06T06:07:34;96916.59;;;20.08;57.46
54994;BME280;40891;47.242;8.648;2022-07-06T06:10:01;96914.09;;;20.15;57.94
54994;BME280;40891;47.242;8.648;2022-07-06T06:12:26;96915.41;;;20.20;57.89
54994;BME280;40891;47.242;8.648;2022-07-06T06:14:51;96910.84;;;20.28;57.52
54994;BME280;40891;47.242;8.648;2022-07-06T06:17:17;96921.88;;;20.26;55.89
54994;BME280;40891;47.242;8.648;2022-07-06T06:19:42;96914.72;;;20.30;56.91
54994;BME280;40891;47.242;8.648;2022-07-06T06:22:07;96918.63;;;20.39;56.81
54994;BME280;40891;47.242;8.648;2022-07-06T06:24:33;96919.16;;;20.43;56.44
54994;BME280;40891;47.242;8.648;2022-07-06T06:26:58;96924.59;;;20.46;55.50
54994;BME280;40891;47.242;8.648;2022-07-06T06:29:24;96920.94;;;20.40;56.44
54994;BME280;40891;47.242;8.648;2022-07-06T06:31:49;96912.81;;;20.53;56.57
54994;BME280;40891;47.242;8.648;2022-07-06T06:34:15;96919.75;;;20.58;55.83
54994;BME280;40891;47.242;8.648;2022-07-06T06:36:40;96920.03;;;20.60;55.15
54994;BME280;40891;47.242;8.648;2022-07-06T06:39:06;96920.81;;;20.60;54.49
54994;BME280;40891;47.242;8.648;2022-07-06T06:41:31;96922.59;;;20.58;54.03
54994;BME280;40891;47.242;8.648;2022-07-06T06:43:56;96919.78;;;20.63;54.10
54994;BME280;40891;47.242;8.648;2022-07-06T06:46:22;96922.63;;;20.69;54.35
54994;BME280;40891;47.242;8.648;2022-07-06T06:48:47;96923.41;;;20.69;55.64
54994;BME280;40891;47.242;8.648;2022-07-06T06:51:12;96922.66;;;20.80;56.28
54994;BME280;40891;47.242;8.648;2022-07-06T06:53:38;96917.06;;;20.96;56.85
54994;BME280;40891;47.242;8.648;2022-07-06T06:56:03;96923.28;;;21.00;54.27
54994;BME280;40891;47.242;8.648;2022-07-06T06:58:29;96915.28;;;20.99;53.98
54994;BME280;40891;47.242;8.648;2022-07-06T07:00:54;96912.78;;;21.12;55.63
54994;BME280;40891;47.242;8.648;2022-07-06T07:03:20;96916.13;;;21.16;54.82
54994;BME280;40891;47.242;8.648;2022-07-06T07:05:45;96915.34;;;21.16;53.52
54994;BME280;40891;47.242;8.648;2022-07-06T07:08:11;96913.03;;;21.09;53.36
54994;BME280;40891;47.242;8.648;2022-07-06T07:10:36;96913.84;;;21.26;54.20
54994;BME280;40891;47.242;8.648;2022-07-06T07:13:01;96914.13;;;21.33;54.38
54994;BME280;40891;47.242;8.648;2022-07-06T07:15:27;96900.75;;;21.39;54.97
54994;BME280;40891;47.242;8.648;2022-07-06T07:17:52;96902.06;;;21.38;52.17
54994;BME280;40891;47.242;8.648;2022-07-06T07:20:18;96899.47;;;21.40;54.17
54994;BME280;40891;47.242;8.648;2022-07-06T07:22:43;96896.91;;;21.42;53.20
54994;BME280;40891;47.242;8.648;2022-07-06T07:25:08;96895.09;;;21.56;55.37
54994;BME280;40891;47.242;8.648;2022-07-06T07:27:34;96896.41;;;21.49;52.38
54994;BME280;40891;47.242;8.648;2022-07-06T07:29:59;96895.88;;;21.56;52.11
54994;BME280;40891;47.242;8.648;2022-07-06T07:32:25;96896.91;;;21.59;51.15
54994;BME280;40891;47.242;8.648;2022-07-06T07:34:50;96901.81;;;21.64;52.13
54994;BME280;40891;47.242;8.648;2022-07-06T07:37:15;96902.84;;;21.66;51.85
54994;BME280;40891;47.242;8.648;2022-07-06T07:39:41;96901.53;;;21.56;53.44
54994;BME280;40891;47.242;8.648;2022-07-06T07:42:07;96901.03;;;21.52;50.38
54994;BME280;40891;47.242;8.648;2022-07-06T07:44:32;96897.69;;;21.70;51.63
54994;BME280;40891;47.242;8.648;2022-07-06T07:46:58;96898.22;;;21.80;52.71
54994;BME280;40891;47.242;8.648;2022-07-06T07:49:23;96894.38;;;21.94;53.29
54994;BME280;40891;47.242;8.648;2022-07-06T07:51:49;96898.22;;;21.69;49.86
54994;BME280;40891;47.242;8.648;2022-07-06T07:54:14;96897.19;;;21.94;52.30
54994;BME280;40891;47.242;8.648;2022-07-06T07:56:39;96896.66;;;22.01;51.94
54994;BME280;40891;47.242;8.648;2022-07-06T07:59:08;96891.78;;;22.02;49.49
54994;BME280;40891;47.242;8.648;2022-07-06T08:01:33;96893.56;;;22.10;50.62
54994;BME280;40891;47.242;8.648;2022-07-06T08:03:59;96897.69;;;22.04;47.89
54994;BME280;40891;47.242;8.648;2022-07-06T08:06:24;96898.44;;;22.21;50.39
54994;BME280;40891;47.242;8.648;2022-07-06T08:08:50;96899.19;;;22.32;50.24
54994;BME280;40891;47.242;8.648;2022-07-06T08:11:16;96888.84;;;22.52;50.10
54994;BME280;40891;47.242;8.648;2022-07-06T08:13:41;96894.47;;;22.68;49.52
54994;BME280;40891;47.242;8.648;2022-07-06T08:16:07;96895.44;;;22.82;49.23
54994;BME280;40891;47.242;8.648;2022-07-06T08:18:33;96897.25;;;22.85;51.06
54994;BME280;40891;47.242;8.648;2022-07-06T08:20:59;96892.56;;;22.93;50.57
54994;BME280;40891;47.242;8.648;2022-07-06T08:23:25;96896.69;;;22.92;47.97
54994;BME280;40891;47.242;8.648;2022-07-06T08:25:50;96893.09;;;22.91;47.54
54994;BME280;40891;47.242;8.648;2022-07-06T08:28:15;96896.16;;;22.99;50.17
54994;BME280;40891;47.242;8.648;2022-07-06T08:30:41;96895.38;;;22.98;46.83
54994;BME280;40891;47.242;8.648;2022-07-06T08:33:06;96897.25;;;22.79;48.96
54994;BME280;40891;47.242;8.648;2022-07-06T08:35:31;96892.00;;;23.00;49.12
54994;BME280;40891;47.242;8.648;2022-07-06T08:37:57;96895.03;;;23.13;50.18
54994;BME280;40891;47.242;8.648;2022-07-06T08:40:22;96899.53;;;23.44;49.81
54994;BME280;40891;47.242;8.648;2022-07-06T08:42:53;96903.59;;;23.54;48.45
54994;BME280;40891;47.242;8.648;2022-07-06T08:45:19;96899.06;;;23.69;50.38
54994;BME280;40891;47.242;8.648;2022-07-06T08:47:46;96902.38;;;23.74;47.59
54994;BME280;40891;47.242;8.648;2022-07-06T08:50:14;96897.94;;;23.84;47.27
54994;BME280;40891;47.242;8.648;2022-07-06T08:52:41;96899.38;;;23.96;47.24
54994;BME280;40891;47.242;8.648;2022-07-06T08:55:10;96903.69;;;24.08;46.42
54994;BME280;40891;47.242;8.648;2022-07-06T08:57:37;96905.59;;;23.94;45.19
54994;BME280;40891;47.242;8.648;2022-07-06T09:00:06;96901.50;;;24.19;46.63
54994;BME280;40891;47.242;8.648;2022-07-06T09:02:32;96901.50;;;24.19;47.19
54994;BME280;40891;47.242;8.648;2022-07-06T09:04:58;96897.31;;;24.26;45.46
54994;BME280;40891;47.242;8.648;2022-07-06T09:07:28;96908.59;;;24.37;48.11
54994;BME280;40891;47.242;8.648;2022-07-06T09:09:54;96904.28;;;24.49;47.25
54994;BME280;40891;47.242;8.648;2022-07-06T09:12:20;96904.84;;;24.48;46.13
54994;BME280;40891;47.242;8.648;2022-07-06T09:14:46;96913.31;;;24.53;45.17
54994;BME280;40891;47.242;8.648;2022-07-06T09:17:12;96907.09;;;24.55;44.58
54994;BME280;40891;47.242;8.648;2022-07-06T09:19:37;96915.75;;;24.68;47.60
54994;BME280;40891;47.242;8.648;2022-07-06T09:22:03;96917.41;;;24.82;46.55
54994;BME280;40891;47.242;8.648;2022-07-06T09:24:30;96914.09;;;24.96;45.83
54994;BME280;40891;47.242;8.648;2022-07-06T09:26:57;96918.34;;;24.90;44.59
54994;BME280;40891;47.242;8.648;2022-07-06T09:29:32;96909.19;;;24.97;42.92
54994;BME280;40891;47.242;8.648;2022-07-06T09:32:00;96918.06;;;25.12;44.31
54994;BME280;40891;47.242;8.648;2022-07-06T09:34:43;96915.03;;;24.86;41.72
54994;BME280;40891;47.242;8.648;2022-07-06T09:37:09;96906.97;;;25.09;44.42
54994;BME280;40891;47.242;8.648;2022-07-06T09:39:35;96920.06;;;25.17;44.97
54994;BME280;40891;47.242;8.648;2022-07-06T09:42:02;96907.47;;;25.50;46.08
54994;BME280;40891;47.242;8.648;2022-07-06T09:44:33;96912.34;;;25.68;45.50
54994;BME280;40891;47.242;8.648;2022-07-06T09:47:04;96909.72;;;25.70;41.04
54994;BME280;40891;47.242;8.648;2022-07-06T09:49:30;96909.53;;;25.49;41.69
54994;BME280;40891;47.242;8.648;2022-07-06T09:52:03;96913.06;;;25.37;40.88
54994;BME280;40891;47.242;8.648;2022-07-06T09:54:29;96920.72;;;25.47;43.50
54994;BME280;40891;47.242;8.648;2022-07-06T09:56:56;96907.38;;;25.74;42.58
54994;BME280;40891;47.242;8.648;2022-07-06T09:59:26;96911.16;;;25.95;43.37
54994;BME280;40891;47.242;8.648;2022-07-06T10:01:57;96913.25;;;26.08;42.14
54994;BME280;40891;47.242;8.648;2022-07-06T10:04:24;96908.63;;;25.92;39.75
54994;BME280;40891;47.242;8.648;2022-07-06T10:06:52;96911.59;;;25.99;41.27
54994;BME280;40891;47.242;8.648;2022-07-06T10:09:19;96907.56;;;26.40;41.01
54994;BME280;40891;47.242;8.648;2022-07-06T10:11:48;96899.09;;;26.34;39.74
54994;BME280;40891;47.242;8.648;2022-07-06T10:14:18;96901.97;;;26.60;41.88
54994;BME280;40891;47.242;8.648;2022-07-06T10:16:45;96904.53;;;26.90;41.50
54994;BME280;40891;47.242;8.648;2022-07-06T10:19:11;96904.03;;;27.25;42.23
54994;BME280;40891;47.242;8.648;2022-07-06T10:21:38;96910.75;;;27.15;38.65
54994;BME280;40891;47.242;8.648;2022-07-06T10:24:08;96900.34;;;27.04;39.32
54994;BME280;40891;47.242;8.648;2022-07-06T10:26:35;96894.97;;;26.87;39.21
54994;BME280;40891;47.242;8.648;2022-07-06T10:29:02;96893.44;;;26.99;39.55
54994;BME280;40891;47.242;8.648;2022-07-06T10:31:28;96888.47;;;27.13;40.09
54994;BME280;40891;47.242;8.648;2022-07-06T10:33:56;96893.28;;;27.18;39.18
54994;BME280;40891;47.242;8.648;2022-07-06T10:36:22;96886.50;;;27.55;40.57
54994;BME280;40891;47.242;8.648;2022-07-06T10:38:50;96893.50;;;27.20;38.64
54994;BME280;40891;47.242;8.648;2022-07-06T10:41:16;96886.91;;;27.59;40.24
54994;BME280;40891;47.242;8.648;2022-07-06T10:43:45;96879.25;;;28.08;38.47
54994;BME280;40891;47.242;8.648;2022-07-06T10:46:16;96871.09;;;28.12;37.14
54994;BME280;40891;47.242;8.648;2022-07-06T10:48:47;96874.38;;;28.65;38.61
54994;BME280;40891;47.242;8.648;2022-07-06T10:51:23;96869.88;;;28.85;34.29
54994;BME280;40891;47.242;8.648;2022-07-06T10:53:56;96869.19;;;28.99;36.06
54994;BME280;40891;47.242;8.648;2022-07-06T10:56:38;96861.38;;;29.00;34.16
54994;BME280;40891;47.242;8.648;2022-07-06T10:59:16;96863.88;;;29.47;35.13
54994;BME280;40891;47.242;8.648;2022-07-06T11:04:40;96851.91;;;29.71;32.50
54994;BME280;40891;47.242;8.648;2022-07-06T11:09:35;96851.53;;;29.82;33.16
54994;BME280;40891;47.242;8.648;2022-07-06T11:12:12;96845.84;;;29.97;31.63
54994;BME280;40891;47.242;8.648;2022-07-06T11:14:39;96861.81;;;29.70;33.23
54994;BME280;40891;47.242;8.648;2022-07-06T11:17:09;96859.59;;;29.91;32.11
54994;BME280;40891;47.242;8.648;2022-07-06T11:19:35;96861.34;;;30.47;32.52
54994;BME280;40891;47.242;8.648;2022-07-06T11:22:08;96853.03;;;30.97;30.82
54994;BME280;40891;47.242;8.648;2022-07-06T11:24:36;96853.22;;;30.99;30.22
54994;BME280;40891;47.242;8.648;2022-07-06T11:27:02;96853.13;;;30.44;31.56
54994;BME280;40891;47.242;8.648;2022-07-06T11:29:29;96847.16;;;31.27;31.40
54994;BME280;40891;47.242;8.648;2022-07-06T11:31:57;96849.38;;;31.51;29.75
54994;BME280;40891;47.242;8.648;2022-07-06T11:34:25;96847.47;;;31.78;29.51
54994;BME280;40891;47.242;8.648;2022-07-06T11:36:55;96854.34;;;31.50;28.40
54994;BME280;40891;47.242;8.648;2022-07-06T11:39:21;96845.22;;;31.29;30.12
54994;BME280;40891;47.242;8.648;2022-07-06T11:41:46;96847.97;;;31.92;31.83
54994;BME280;40891;47.242;8.648;2022-07-06T11:44:12;96837.06;;;32.15;30.12
54994;BME280;40891;47.242;8.648;2022-07-06T11:46:37;96841.66;;;32.35;29.19
54994;BME280;40891;47.242;8.648;2022-07-06T11:49:07;96840.34;;;32.36;28.09
54994;BME280;40891;47.242;8.648;2022-07-06T11:51:36;96837.78;;;32.99;29.67
54994;BME280;40891;47.242;8.648;2022-07-06T11:54:08;96835.06;;;33.18;29.01
54994;BME280;40891;47.242;8.648;2022-07-06T11:56:35;96830.69;;;33.17;26.02
54994;BME280;40891;47.242;8.648;2022-07-06T11:59:00;96840.44;;;33.66;27.30
54994;BME280;40891;47.242;8.648;2022-07-06T12:01:30;96831.38;;;34.05;26.19
54994;BME280;40891;47.242;8.648;2022-07-06T12:04:01;96840.31;;;34.00;26.79
54994;BME280;40891;47.242;8.648;2022-07-06T12:06:29;96838.25;;;33.83;27.88
54994;BME280;40891;47.242;8.648;2022-07-06T12:08:58;96837.69;;;33.94;26.22
54994;BME280;40891;47.242;8.648;2022-07-06T12:11:33;96838.41;;;34.12;27.00
54994;BME280;40891;47.242;8.648;2022-07-06T12:14:03;96832.81;;;33.87;25.78
54994;BME280;40891;47.242;8.648;2022-07-06T12:16:37;96830.84;;;34.16;25.58
54994;BME280;40891;47.242;8.648;2022-07-06T12:19:03;96825.38;;;34.85;27.84
54994;BME280;40891;47.242;8.648;2022-07-06T12:21:30;96826.44;;;35.28;24.95
54994;BME280;40891;47.242;8.648;2022-07-06T12:23:56;96829.91;;;35.75;24.60
54994;BME280;40891;47.242;8.648;2022-07-06T12:26:23;96824.31;;;35.38;23.19
54994;BME280;40891;47.242;8.648;2022-07-06T12:29:19;96827.00;;;36.25;23.68
54994;BME280;40891;47.242;8.648;2022-07-06T12:31:54;96828.63;;;36.58;23.81
54994;BME280;40891;47.242;8.648;2022-07-06T12:34:23;96825.16;;;37.68;23.01
54994;BME280;40891;47.242;8.648;2022-07-06T12:36:56;96812.41;;;37.28;21.84
54994;BME280;40891;47.242;8.648;2022-07-06T12:39:23;96820.72;;;37.43;23.77
54994;BME280;40891;47.242;8.648;2022-07-06T12:41:56;96810.47;;;37.87;21.61
54994;BME280;40891;47.242;8.648;2022-07-06T12:44:25;96804.09;;;39.06;20.95
54994;BME280;40891;47.242;8.648;2022-07-06T12:47:02;96798.31;;;39.31;20.68
54994;BME280;40891;47.242;8.648;2022-07-06T12:49:28;96801.00;;;39.27;18.79
54994;BME280;40891;47.242;8.648;2022-07-06T12:52:01;96798.72;;;39.76;19.13
54994;BME280;40891;47.242;8.648;2022-07-06T12:59:25;96798.53;;;40.25;19.26
54994;BME280;40891;47.242;8.648;2022-07-06T13:01:52;96794.69;;;41.17;18.80
54994;BME280;40891;47.242;8.648;2022-07-06T13:04:25;96791.78;;;41.76;18.09
54994;BME280;40891;47.242;8.648;2022-07-06T13:06:51;96786.00;;;42.23;18.41
54994;BME280;40891;47.242;8.648;2022-07-06T13:09:17;96782.50;;;42.91;17.58